Austin Straubel International, WI

2:37 PM CDT on April 28, 2015 (GMT -0500)
Outagamie County Regional | | Change Station
CLOSE
Current Station
Airport
Location: Appleton,
Elevation: 919 ft
Nearby Weather Stations

Elev 919 ft 44.26 °N, 88.52 °W | Updated 52 minutes ago

Clear
Clear
57 °F
Feels Like 57 °F
N
10
Wind Variable Wind from NNE

Today
High -- | Low -- °F
--% Chance of Precip.
Yesterday
High -- | Low -- °F
Precip. -- in
5:47 AM 7:52 PM
Waxing Gibbous, 76% visible
Pressure 30.10 in
Visibility 10.0 miles
Clouds Scattered Clouds 10000 ft
Dew Point 36 °F
Humidity 44%
Rainfall 0.00 in
Snow Depth Not available.
UV 7 out of 12
Pollen 10.00 out of 12
Air Quality Not available.
Flu Activity Local Activity
METAR KATW 281845Z 03009KT 10SM SCT100 14/02 A3010

More Conditions Fewer Conditions

Pressure 30.10 in
Visibility 10.0 miles
Clouds Scattered Clouds 10000 ft
Dew Point 36 °F
Humidity 44%
Rainfall 0.00 in
Snow Depth Not available.
UV 7 out of 12
Pollen 10.00 out of 12
Air Quality Not available.
Flu Activity Local Activity
METAR KATW 281845Z 03009KT 10SM SCT100 14/02 A3010

More Conditions Fewer Conditions

10-Day Weather Forecast

Almanac

Astronomy

Apr. 28, 2015 Rise Set
Actual Time
Civil Twilight
Nautical Twilight
Astronomical Twilight
Moon
Length of Visible Light
Length of Day
Tomorrow will be .
, % of the Moon is Illuminated

Today's Extremes

State Highs State Lows

Community

WunderPhotos

Upload Photos

1,817,739 photos uploaded!

WunderBlogs® & News

Nearby

Air Quality

  Air Quality AQ Index Pollutant
Not available.

Snow Depth

Station Depth Elevation

Earthquake Activity

City Distance Mag. Time & Date
Minimum magnitude displayed is 2.5.

Coastal Water Temperatures

Place Temperature

Stations

Nearby Weather Stations

Station Location Temp. Windchill Dew Point Humidity Wind Precip. Elev Updated Type